sensor_id;sensor_type;location;lat;lon;timestamp;temperature;humidity
78522;SHT31;67819;51.972;5.678;2023-05-10T00:00:45;15.2;81.7
78522;SHT31;67819;51.972;5.678;2023-05-10T00:03:13;15.2;81.6
78522;SHT31;67819;51.972;5.678;2023-05-10T00:05:42;15.2;81.4
78522;SHT31;67819;51.972;5.678;2023-05-10T00:08:11;15.2;81.0
78522;SHT31;67819;51.972;5.678;2023-05-10T00:10:39;15.3;81.0
78522;SHT31;67819;51.972;5.678;2023-05-10T00:13:08;15.3;81.3
78522;SHT31;67819;51.972;5.678;2023-05-10T00:15:37;15.3;81.2
78522;SHT31;67819;51.972;5.678;2023-05-10T00:18:06;15.3;81.1
78522;SHT31;67819;51.972;5.678;2023-05-10T00:20:35;15.3;81.0
78522;SHT31;67819;51.972;5.678;2023-05-10T00:23:03;15.3;81.1
78522;SHT31;67819;51.972;5.678;2023-05-10T00:25:32;15.3;81.0
78522;SHT31;67819;51.972;5.678;2023-05-10T00:28:00;15.3;80.8
78522;SHT31;67819;51.972;5.678;2023-05-10T00:30:29;15.3;81.1
78522;SHT31;67819;51.972;5.678;2023-05-10T00:32:58;15.3;80.7
78522;SHT31;67819;51.972;5.678;2023-05-10T00:35:26;15.3;80.6
78522;SHT31;67819;51.972;5.678;2023-05-10T00:37:55;15.3;80.8
78522;SHT31;67819;51.972;5.678;2023-05-10T00:40:24;15.3;80.4
78522;SHT31;67819;51.972;5.678;2023-05-10T00:42:53;15.3;80.9
78522;SHT31;67819;51.972;5.678;2023-05-10T00:45:22;15.3;80.9
78522;SHT31;67819;51.972;5.678;2023-05-10T00:47:51;15.3;80.9
78522;SHT31;67819;51.972;5.678;2023-05-10T00:50:21;15.3;80.9
78522;SHT31;67819;51.972;5.678;2023-05-10T00:52:50;15.3;80.8
78522;SHT31;67819;51.972;5.678;2023-05-10T00:55:19;15.4;80.8
78522;SHT31;67819;51.972;5.678;2023-05-10T00:57:48;15.4;80.8
78522;SHT31;67819;51.972;5.678;2023-05-10T01:00:17;15.4;80.9
78522;SHT31;67819;51.972;5.678;2023-05-10T01:02:47;15.4;81.1
78522;SHT31;67819;51.972;5.678;2023-05-10T01:05:16;15.4;81.1
78522;SHT31;67819;51.972;5.678;2023-05-10T01:07:44;15.4;81.1
78522;SHT31;67819;51.972;5.678;2023-05-10T01:10:13;15.4;81.0
78522;SHT31;67819;51.972;5.678;2023-05-10T01:12:45;15.4;81.0
78522;SHT31;67819;51.972;5.678;2023-05-10T01:15:18;15.4;80.9
78522;SHT31;67819;51.972;5.678;2023-05-10T01:17:49;15.4;80.7
78522;SHT31;67819;51.972;5.678;2023-05-10T01:20:17;15.4;80.8
78522;SHT31;67819;51.972;5.678;2023-05-10T01:23:24;15.4;81.0
78522;SHT31;67819;51.972;5.678;2023-05-10T01:27:01;15.4;80.9
78522;SHT31;67819;51.972;5.678;2023-05-10T01:31:30;15.4;80.9
78522;SHT31;67819;51.972;5.678;2023-05-10T01:34:04;15.5;80.5
78522;SHT31;67819;51.972;5.678;2023-05-10T01:36:42;15.5;80.6
78522;SHT31;67819;51.972;5.678;2023-05-10T01:39:19;15.5;80.7
78522;SHT31;67819;51.972;5.678;2023-05-10T01:41:52;15.4;80.6
78522;SHT31;67819;51.972;5.678;2023-05-10T01:44:31;15.4;80.7
78522;SHT31;67819;51.972;5.678;2023-05-10T01:47:07;15.4;80.9
78522;SHT31;67819;51.972;5.678;2023-05-10T01:49:43;15.5;80.7
78522;SHT31;67819;51.972;5.678;2023-05-10T01:52:17;15.5;80.3
78522;SHT31;67819;51.972;5.678;2023-05-10T01:54:52;15.5;80.2
78522;SHT31;67819;51.972;5.678;2023-05-10T01:57:26;15.5;80.3
78522;SHT31;67819;51.972;5.678;2023-05-10T01:59:58;15.5;80.3
78522;SHT31;67819;51.972;5.678;2023-05-10T02:02:30;15.5;80.4
78522;SHT31;67819;51.972;5.678;2023-05-10T02:05:05;15.5;80.5
78522;SHT31;67819;51.972;5.678;2023-05-10T02:07:36;15.5;80.2
78522;SHT31;67819;51.972;5.678;2023-05-10T02:10:07;15.5;80.0
78522;SHT31;67819;51.972;5.678;2023-05-10T02:12:41;15.5;80.0
78522;SHT31;67819;51.972;5.678;2023-05-10T02:15:12;15.5;80.0
78522;SHT31;67819;51.972;5.678;2023-05-10T02:17:42;15.5;79.7
78522;SHT31;67819;51.972;5.678;2023-05-10T02:20:12;15.4;79.7
78522;SHT31;67819;51.972;5.678;2023-05-10T02:22:43;15.4;80.0
78522;SHT31;67819;51.972;5.678;2023-05-10T02:25:14;15.4;79.9
78522;SHT31;67819;51.972;5.678;2023-05-10T02:27:44;15.4;79.9
78522;SHT31;67819;51.972;5.678;2023-05-10T02:30:16;15.4;79.8
78522;SHT31;67819;51.972;5.678;2023-05-10T02:32:46;15.4;79.9
78522;SHT31;67819;51.972;5.678;2023-05-10T02:35:16;15.4;79.8
78522;SHT31;67819;51.972;5.678;2023-05-10T02:37:46;15.4;79.8
78522;SHT31;67819;51.972;5.678;2023-05-10T02:40:16;15.4;79.4
78522;SHT31;67819;51.972;5.678;2023-05-10T02:42:47;15.4;79.4
78522;SHT31;67819;51.972;5.678;2023-05-10T02:45:20;15.4;78.6
78522;SHT31;67819;51.972;5.678;2023-05-10T02:47:49;15.4;78.5
78522;SHT31;67819;51.972;5.678;2023-05-10T02:50:18;15.3;78.8
78522;SHT31;67819;51.972;5.678;2023-05-10T02:52:50;15.3;78.6
78522;SHT31;67819;51.972;5.678;2023-05-10T02:55:25;15.3;78.9
78522;SHT31;67819;51.972;5.678;2023-05-10T02:57:58;15.2;78.8
78522;SHT31;67819;51.972;5.678;2023-05-10T03:00:27;15.2;78.7
78522;SHT31;67819;51.972;5.678;2023-05-10T03:02:55;15.2;78.2
78522;SHT31;67819;51.972;5.678;2023-05-10T03:05:26;15.1;78.4
78522;SHT31;67819;51.972;5.678;2023-05-10T03:07:55;15.1;78.7
78522;SHT31;67819;51.972;5.678;2023-05-10T03:10:28;15.1;79.2
78522;SHT31;67819;51.972;5.678;2023-05-10T03:13:10;15.1;79.2
78522;SHT31;67819;51.972;5.678;2023-05-10T03:15:51;15.1;79.0
78522;SHT31;67819;51.972;5.678;2023-05-10T03:18:33;15.1;79.7
78522;SHT31;67819;51.972;5.678;2023-05-10T03:21:07;15.1;79.4
78522;SHT31;67819;51.972;5.678;2023-05-10T03:23:42;15.1;79.4
78522;SHT31;67819;51.972;5.678;2023-05-10T03:26:20;15.1;79.6
78522;SHT31;67819;51.972;5.678;2023-05-10T03:28:52;15.1;79.6
78522;SHT31;67819;51.972;5.678;2023-05-10T03:31:21;15.1;79.6
78522;SHT31;67819;51.972;5.678;2023-05-10T03:33:51;15.1;79.4
78522;SHT31;67819;51.972;5.678;2023-05-10T03:36:20;15.1;79.3
78522;SHT31;67819;51.972;5.678;2023-05-10T03:38:49;15.1;78.9
78522;SHT31;67819;51.972;5.678;2023-05-10T03:41:17;15.1;79.0
78522;SHT31;67819;51.972;5.678;2023-05-10T03:43:47;15.1;78.7
78522;SHT31;67819;51.972;5.678;2023-05-10T03:46:17;15.1;78.6
78522;SHT31;67819;51.972;5.678;2023-05-10T03:48:46;15.0;78.9
78522;SHT31;67819;51.972;5.678;2023-05-10T03:51:14;15.0;79.0
78522;SHT31;67819;51.972;5.678;2023-05-10T03:53:43;15.0;79.2
78522;SHT31;67819;51.972;5.678;2023-05-10T03:56:11;15.0;79.3
78522;SHT31;67819;51.972;5.678;2023-05-10T03:58:40;15.0;79.1
78522;SHT31;67819;51.972;5.678;2023-05-10T04:01:08;15.0;79.1
78522;SHT31;67819;51.972;5.678;2023-05-10T04:03:38;15.0;78.8
78522;SHT31;67819;51.972;5.678;2023-05-10T04:06:06;15.0;78.9
78522;SHT31;67819;51.972;5.678;2023-05-10T04:08:38;15.0;79.1
78522;SHT31;67819;51.972;5.678;2023-05-10T04:11:07;15.0;79.3
78522;SHT31;67819;51.972;5.678;2023-05-10T04:13:36;15.0;79.1
78522;SHT31;67819;51.972;5.678;2023-05-10T04:16:05;15.0;79.4
78522;SHT31;67819;51.972;5.678;2023-05-10T04:18:36;15.0;79.4
78522;SHT31;67819;51.972;5.678;2023-05-10T04:21:13;15.0;79.0
78522;SHT31;67819;51.972;5.678;2023-05-10T04:23:41;15.0;78.8
78522;SHT31;67819;51.972;5.678;2023-05-10T04:26:12;14.9;78.6
78522;SHT31;67819;51.972;5.678;2023-05-10T04:28:41;14.9;79.1
78522;SHT31;67819;51.972;5.678;2023-05-10T04:31:10;14.9;79.1
78522;SHT31;67819;51.972;5.678;2023-05-10T04:33:38;14.9;79.2
78522;SHT31;67819;51.972;5.678;2023-05-10T04:36:07;14.9;79.4
78522;SHT31;67819;51.972;5.678;2023-05-10T04:38:36;14.9;79.3
78522;SHT31;67819;51.972;5.678;2023-05-10T04:41:09;15.0;79.1
78522;SHT31;67819;51.972;5.678;2023-05-10T04:43:38;15.0;79.4
78522;SHT31;67819;51.972;5.678;2023-05-10T04:46:07;15.0;78.9
78522;SHT31;67819;51.972;5.678;2023-05-10T04:48:36;15.0;79.5
78522;SHT31;67819;51.972;5.678;2023-05-10T04:51:04;15.0;79.3
78522;SHT31;67819;51.972;5.678;2023-05-10T04:53:33;15.0;79.4
78522;SHT31;67819;51.972;5.678;2023-05-10T04:56:04;15.0;79.1
78522;SHT31;67819;51.972;5.678;2023-05-10T04:58:33;15.1;79.0
78522;SHT31;67819;51.972;5.678;2023-05-10T05:01:07;15.1;79.1
78522;SHT31;67819;51.972;5.678;2023-05-10T05:03:39;15.1;78.9
78522;SHT31;67819;51.972;5.678;2023-05-10T05:06:07;15.1;79.0
78522;SHT31;67819;51.972;5.678;2023-05-10T05:08:36;15.1;78.9
78522;SHT31;67819;51.972;5.678;2023-05-10T05:11:04;15.2;78.9
78522;SHT31;67819;51.972;5.678;2023-05-10T05:13:33;15.2;78.4
78522;SHT31;67819;51.972;5.678;2023-05-10T05:16:02;15.2;78.8
78522;SHT31;67819;51.972;5.678;2023-05-10T05:18:31;15.2;78.5
78522;SHT31;67819;51.972;5.678;2023-05-10T05:21:00;15.2;78.5
78522;SHT31;67819;51.972;5.678;2023-05-10T05:23:29;15.2;78.2
78522;SHT31;67819;51.972;5.678;2023-05-10T05:25:58;15.2;78.2
78522;SHT31;67819;51.972;5.678;2023-05-10T05:28:29;15.2;78.7
78522;SHT31;67819;51.972;5.678;2023-05-10T05:30:59;15.2;78.7
78522;SHT31;67819;51.972;5.678;2023-05-10T05:33:27;15.2;78.7
78522;SHT31;67819;51.972;5.678;2023-05-10T05:35:56;15.2;78.6
78522;SHT31;67819;51.972;5.678;2023-05-10T05:38:24;15.2;78.4
78522;SHT31;67819;51.972;5.678;2023-05-10T05:40:53;15.2;78.3
78522;SHT31;67819;51.972;5.678;2023-05-10T05:43:22;15.2;78.5
78522;SHT31;67819;51.972;5.678;2023-05-10T05:45:52;15.2;78.5
78522;SHT31;67819;51.972;5.678;2023-05-10T05:48:21;15.2;78.4
78522;SHT31;67819;51.972;5.678;2023-05-10T05:50:49;15.2;78.7
78522;SHT31;67819;51.972;5.678;2023-05-10T05:53:20;15.2;78.8
78522;SHT31;67819;51.972;5.678;2023-05-10T05:55:55;15.2;79.1
78522;SHT31;67819;51.972;5.678;2023-05-10T05:58:25;15.2;79.3
78522;SHT31;67819;51.972;5.678;2023-05-10T06:00:54;15.2;79.0
78522;SHT31;67819;51.972;5.678;2023-05-10T06:03:23;15.2;78.9
78522;SHT31;67819;51.972;5.678;2023-05-10T06:05:51;15.2;79.1
78522;SHT31;67819;51.972;5.678;2023-05-10T06:08:20;15.2;78.6
78522;SHT31;67819;51.972;5.678;2023-05-10T06:10:48;15.2;78.9
78522;SHT31;67819;51.972;5.678;2023-05-10T06:13:17;15.2;79.2
78522;SHT31;67819;51.972;5.678;2023-05-10T06:15:45;15.2;79.4
78522;SHT31;67819;51.972;5.678;2023-05-10T06:18:14;15.2;78.9
78522;SHT31;67819;51.972;5.678;2023-05-10T06:20:43;15.2;78.9
78522;SHT31;67819;51.972;5.678;2023-05-10T06:23:11;15.3;78.6
78522;SHT31;67819;51.972;5.678;2023-05-10T06:25:40;15.3;78.9
78522;SHT31;67819;51.972;5.678;2023-05-10T06:28:09;15.3;79.2
78522;SHT31;67819;51.972;5.678;2023-05-10T06:30:37;15.3;78.4
78522;SHT31;67819;51.972;5.678;2023-05-10T06:33:06;15.3;78.3
78522;SHT31;67819;51.972;5.678;2023-05-10T06:35:35;15.3;78.5
78522;SHT31;67819;51.972;5.678;2023-05-10T06:38:03;15.3;78.3
78522;SHT31;67819;51.972;5.678;2023-05-10T06:40:34;15.3;78.4
78522;SHT31;67819;51.972;5.678;2023-05-10T06:43:02;15.3;78.3
78522;SHT31;67819;51.972;5.678;2023-05-10T06:45:32;15.3;78.5
78522;SHT31;67819;51.972;5.678;2023-05-10T06:48:00;15.3;78.6
78522;SHT31;67819;51.972;5.678;2023-05-10T06:50:29;15.3;79.1
78522;SHT31;67819;51.972;5.678;2023-05-10T06:52:57;15.3;79.0
78522;SHT31;67819;51.972;5.678;2023-05-10T06:55:26;15.3;79.2
78522;SHT31;67819;51.972;5.678;2023-05-10T06:57:55;15.3;79.2
78522;SHT31;67819;51.972;5.678;2023-05-10T07:00:26;15.3;79.0
78522;SHT31;67819;51.972;5.678;2023-05-10T07:02:54;15.3;79.3
78522;SHT31;67819;51.972;5.678;2023-05-10T07:05:23;15.3;78.7
78522;SHT31;67819;51.972;5.678;2023-05-10T07:07:54;15.3;78.3
78522;SHT31;67819;51.972;5.678;2023-05-10T07:10:22;15.3;78.6
78522;SHT31;67819;51.972;5.678;2023-05-10T07:12:51;15.2;79.2
78522;SHT31;67819;51.972;5.678;2023-05-10T07:15:20;15.2;79.3
78522;SHT31;67819;51.972;5.678;2023-05-10T07:17:49;15.2;79.0
78522;SHT31;67819;51.972;5.678;2023-05-10T07:20:20;15.2;79.3
78522;SHT31;67819;51.972;5.678;2023-05-10T07:22:49;15.3;79.0
78522;SHT31;67819;51.972;5.678;2023-05-10T07:25:17;15.3;78.9
78522;SHT31;67819;51.972;5.678;2023-05-10T07:27:46;15.3;79.6
78522;SHT31;67819;51.972;5.678;2023-05-10T07:30:15;15.3;79.1
78522;SHT31;67819;51.972;5.678;2023-05-10T07:32:44;15.4;79.1
78522;SHT31;67819;51.972;5.678;2023-05-10T07:35:12;15.4;78.7
78522;SHT31;67819;51.972;5.678;2023-05-10T07:37:41;15.4;78.9
78522;SHT31;67819;51.972;5.678;2023-05-10T07:40:12;15.5;78.5
78522;SHT31;67819;51.972;5.678;2023-05-10T07:42:41;15.6;78.4
78522;SHT31;67819;51.972;5.678;2023-05-10T07:45:10;15.6;77.3
78522;SHT31;67819;51.972;5.678;2023-05-10T07:47:39;15.6;76.8
78522;SHT31;67819;51.972;5.678;2023-05-10T07:50:10;15.7;76.7
78522;SHT31;67819;51.972;5.678;2023-05-10T07:52:38;15.7;76.4
78522;SHT31;67819;51.972;5.678;2023-05-10T07:55:08;15.8;75.4
78522;SHT31;67819;51.972;5.678;2023-05-10T07:57:37;15.8;75.2
78522;SHT31;67819;51.972;5.678;2023-05-10T08:00:07;15.8;75.4
78522;SHT31;67819;51.972;5.678;2023-05-10T08:02:36;15.8;74.0
78522;SHT31;67819;51.972;5.678;2023-05-10T08:05:05;15.8;74.4
78522;SHT31;67819;51.972;5.678;2023-05-10T08:07:34;15.8;74.3
78522;SHT31;67819;51.972;5.678;2023-05-10T08:10:04;15.8;74.1
78522;SHT31;67819;51.972;5.678;2023-05-10T08:12:33;15.8;73.9
78522;SHT31;67819;51.972;5.678;2023-05-10T08:15:01;15.7;73.4
78522;SHT31;67819;51.972;5.678;2023-05-10T08:17:30;15.7;73.4
78522;SHT31;67819;51.972;5.678;2023-05-10T08:19:58;15.7;73.8
78522;SHT31;67819;51.972;5.678;2023-05-10T08:22:27;15.7;74.3
78522;SHT31;67819;51.972;5.678;2023-05-10T08:24:56;15.7;73.5
78522;SHT31;67819;51.972;5.678;2023-05-10T08:27:24;15.7;73.7
78522;SHT31;67819;51.972;5.678;2023-05-10T08:29:53;15.7;74.4
78522;SHT31;67819;51.972;5.678;2023-05-10T08:32:23;15.7;74.4
78522;SHT31;67819;51.972;5.678;2023-05-10T08:34:52;15.8;73.7
78522;SHT31;67819;51.972;5.678;2023-05-10T08:37:20;15.9;72.7
78522;SHT31;67819;51.972;5.678;2023-05-10T08:39:49;15.9;72.2
78522;SHT31;67819;51.972;5.678;2023-05-10T08:42:20;16.0;72.7
78522;SHT31;67819;51.972;5.678;2023-05-10T08:44:55;16.0;72.3
78522;SHT31;67819;51.972;5.678;2023-05-10T08:47:25;16.1;70.8
78522;SHT31;67819;51.972;5.678;2023-05-10T08:49:54;16.1;71.7
78522;SHT31;67819;51.972;5.678;2023-05-10T08:52:26;16.2;70.2
78522;SHT31;67819;51.972;5.678;2023-05-10T08:54:56;16.2;70.7
78522;SHT31;67819;51.972;5.678;2023-05-10T08:57:25;16.3;69.2
78522;SHT31;67819;51.972;5.678;2023-05-10T08:59:54;16.4;69.2
78522;SHT31;67819;51.972;5.678;2023-05-10T09:02:23;16.4;69.3
78522;SHT31;67819;51.972;5.678;2023-05-10T09:04:52;16.5;69.9
78522;SHT31;67819;51.972;5.678;2023-05-10T09:07:21;16.5;68.6
78522;SHT31;67819;51.972;5.678;2023-05-10T09:09:52;16.6;68.7
78522;SHT31;67819;51.972;5.678;2023-05-10T09:12:21;16.6;69.3
78522;SHT31;67819;51.972;5.678;2023-05-10T09:14:52;16.7;66.6
78522;SHT31;67819;51.972;5.678;2023-05-10T09:17:23;16.7;67.0
78522;SHT31;67819;51.972;5.678;2023-05-10T09:19:56;16.7;67.1
78522;SHT31;67819;51.972;5.678;2023-05-10T09:22:27;16.7;68.3
78522;SHT31;67819;51.972;5.678;2023-05-10T09:25:06;16.7;67.6
78522;SHT31;67819;51.972;5.678;2023-05-10T09:27:36;16.7;67.2
78522;SHT31;67819;51.972;5.678;2023-05-10T09:30:07;16.7;66.5
78522;SHT31;67819;51.972;5.678;2023-05-10T09:32:40;16.7;67.1
78522;SHT31;67819;51.972;5.678;2023-05-10T09:35:11;16.7;67.7
78522;SHT31;67819;51.972;5.678;2023-05-10T09:37:42;16.7;67.0
78522;SHT31;67819;51.972;5.678;2023-05-10T09:40:14;16.7;68.4
78522;SHT31;67819;51.972;5.678;2023-05-10T09:42:54;16.7;67.1
78522;SHT31;67819;51.972;5.678;2023-05-10T09:45:23;16.7;68.7
78522;SHT31;67819;51.972;5.678;2023-05-10T09:47:53;16.8;67.2
78522;SHT31;67819;51.972;5.678;2023-05-10T09:50:23;16.8;66.9
78522;SHT31;67819;51.972;5.678;2023-05-10T09:52:54;16.8;66.8
78522;SHT31;67819;51.972;5.678;2023-05-10T09:55:26;16.8;66.9
78522;SHT31;67819;51.972;5.678;2023-05-10T09:58:00;16.8;66.2
78522;SHT31;67819;51.972;5.678;2023-05-10T10:00:36;16.8;66.6
78522;SHT31;67819;51.972;5.678;2023-05-10T10:03:05;16.8;66.6
78522;SHT31;67819;51.972;5.678;2023-05-10T10:05:35;16.9;66.7
78522;SHT31;67819;51.972;5.678;2023-05-10T10:08:05;16.9;67.5
78522;SHT31;67819;51.972;5.678;2023-05-10T10:10:34;16.9;66.8
78522;SHT31;67819;51.972;5.678;2023-05-10T10:13:03;16.9;65.7
78522;SHT31;67819;51.972;5.678;2023-05-10T10:15:32;16.9;65.9
78522;SHT31;67819;51.972;5.678;2023-05-10T10:18:02;17.0;66.0
78522;SHT31;67819;51.972;5.678;2023-05-10T10:20:31;17.0;66.5
78522;SHT31;67819;51.972;5.678;2023-05-10T10:23:00;17.0;66.0
78522;SHT31;67819;51.972;5.678;2023-05-10T10:25:29;17.0;67.3
78522;SHT31;67819;51.972;5.678;2023-05-10T10:28:14;17.0;66.8
78522;SHT31;67819;51.972;5.678;2023-05-10T10:30:48;17.0;65.8
78522;SHT31;67819;51.972;5.678;2023-05-10T10:33:50;17.1;65.9
78522;SHT31;67819;51.972;5.678;2023-05-10T10:36:21;17.1;65.3
78522;SHT31;67819;51.972;5.678;2023-05-10T10:39:02;17.2;65.1
78522;SHT31;67819;51.972;5.678;2023-05-10T10:41:36;17.2;64.8
78522;SHT31;67819;51.972;5.678;2023-05-10T10:46:22;17.3;65.8
78522;SHT31;67819;51.972;5.678;2023-05-10T10:49:09;17.4;65.6
78522;SHT31;67819;51.972;5.678;2023-05-10T10:51:39;17.5;65.3
78522;SHT31;67819;51.972;5.678;2023-05-10T10:54:10;17.5;64.4
78522;SHT31;67819;51.972;5.678;2023-05-10T10:56:39;17.5;64.9
78522;SHT31;67819;51.972;5.678;2023-05-10T10:59:08;17.5;63.3
78522;SHT31;67819;51.972;5.678;2023-05-10T11:01:41;17.5;63.6
78522;SHT31;67819;51.972;5.678;2023-05-10T11:04:19;17.5;64.1
78522;SHT31;67819;51.972;5.678;2023-05-10T11:06:48;17.4;63.8
78522;SHT31;67819;51.972;5.678;2023-05-10T11:09:17;17.4;64.6
78522;SHT31;67819;51.972;5.678;2023-05-10T11:11:54;17.3;64.4
78522;SHT31;67819;51.972;5.678;2023-05-10T11:14:25;17.3;65.8
78522;SHT31;67819;51.972;5.678;2023-05-10T11:16:54;17.3;65.3
78522;SHT31;67819;51.972;5.678;2023-05-10T11:19:27;17.3;65.3
78522;SHT31;67819;51.972;5.678;2023-05-10T11:22:15;17.4;66.1
78522;SHT31;67819;51.972;5.678;2023-05-10T11:24:57;17.4;66.2
78522;SHT31;67819;51.972;5.678;2023-05-10T11:27:26;17.5;66.2
78522;SHT31;67819;51.972;5.678;2023-05-10T11:29:55;17.5;65.8
78522;SHT31;67819;51.972;5.678;2023-05-10T11:32:24;17.6;64.1
78522;SHT31;67819;51.972;5.678;2023-05-10T11:34:53;17.6;65.8
78522;SHT31;67819;51.972;5.678;2023-05-10T11:37:21;17.7;65.3
78522;SHT31;67819;51.972;5.678;2023-05-10T11:39:50;17.7;64.2
78522;SHT31;67819;51.972;5.678;2023-05-10T11:42:18;17.8;64.6
78522;SHT31;67819;51.972;5.678;2023-05-10T11:44:47;17.8;64.0
78522;SHT31;67819;51.972;5.678;2023-05-10T11:47:16;17.8;63.5
78522;SHT31;67819;51.972;5.678;2023-05-10T11:49:46;17.9;64.8
78522;SHT31;67819;51.972;5.678;2023-05-10T11:52:14;18.0;64.0
78522;SHT31;67819;51.972;5.678;2023-05-10T11:54:50;18.0;63.8
78522;SHT31;67819;51.972;5.678;2023-05-10T11:57:20;18.1;61.9
78522;SHT31;67819;51.972;5.678;2023-05-10T11:59:53;18.2;63.2
78522;SHT31;67819;51.972;5.678;2023-05-10T12:02:22;18.3;62.7
78522;SHT31;67819;51.972;5.678;2023-05-10T12:04:51;18.3;63.3
78522;SHT31;67819;51.972;5.678;2023-05-10T12:07:21;18.4;62.8
78522;SHT31;67819;51.972;5.678;2023-05-10T12:10:04;18.5;62.2
78522;SHT31;67819;51.972;5.678;2023-05-10T12:12:37;18.6;62.4
78522;SHT31;67819;51.972;5.678;2023-05-10T12:15:11;18.7;60.3
78522;SHT31;67819;51.972;5.678;2023-05-10T12:17:40;18.7;60.6
78522;SHT31;67819;51.972;5.678;2023-05-10T12:20:15;18.8;59.5
78522;SHT31;67819;51.972;5.678;2023-05-10T12:22:50;18.8;59.6
78522;SHT31;67819;51.972;5.678;2023-05-10T12:25:21;18.9;59.5
78522;SHT31;67819;51.972;5.678;2023-05-10T12:27:52;18.9;60.4
78522;SHT31;67819;51.972;5.678;2023-05-10T12:30:23;19.0;61.0
78522;SHT31;67819;51.972;5.678;2023-05-10T12:32:52;19.0;59.5
78522;SHT31;67819;51.972;5.678;2023-05-10T12:35:21;19.0;59.1
78522;SHT31;67819;51.972;5.678;2023-05-10T12:37:50;19.1;60.2
78522;SHT31;67819;51.972;5.678;2023-05-10T12:40:21;19.2;58.9
78522;SHT31;67819;51.972;5.678;2023-05-10T12:42:50;19.2;59.2
78522;SHT31;67819;51.972;5.678;2023-05-10T12:45:19;19.3;59.6
78522;SHT31;67819;51.972;5.678;2023-05-10T12:47:48;19.3;59.8
78522;SHT31;67819;51.972;5.678;2023-05-10T12:50:16;19.3;58.8
78522;SHT31;67819;51.972;5.678;2023-05-10T12:52:47;19.3;57.3
78522;SHT31;67819;51.972;5.678;2023-05-10T12:55:16;19.4;58.2
78522;SHT31;67819;51.972;5.678;2023-05-10T12:57:45;19.4;58.8
78522;SHT31;67819;51.972;5.678;2023-05-10T13:00:14;19.4;58.7
78522;SHT31;67819;51.972;5.678;2023-05-10T13:02:42;19.3;58.3
78522;SHT31;67819;51.972;5.678;2023-05-10T13:05:12;19.3;58.5
78522;SHT31;67819;51.972;5.678;2023-05-10T13:07:43;19.3;59.1
78522;SHT31;67819;51.972;5.678;2023-05-10T13:10:12;19.1;60.0
78522;SHT31;67819;51.972;5.678;2023-05-10T13:12:40;19.0;61.3
78522;SHT31;67819;51.972;5.678;2023-05-10T13:15:09;18.8;61.7
78522;SHT31;67819;51.972;5.678;2023-05-10T13:17:40;18.7;61.9
78522;SHT31;67819;51.972;5.678;2023-05-10T13:20:09;18.6;62.1
78522;SHT31;67819;51.972;5.678;2023-05-10T13:22:38;18.4;61.7
78522;SHT31;67819;51.972;5.678;2023-05-10T13:25:07;18.3;62.4
78522;SHT31;67819;51.972;5.678;2023-05-10T13:27:38;18.2;63.2
78522;SHT31;67819;51.972;5.678;2023-05-10T13:30:08;18.0;64.2
78522;SHT31;67819;51.972;5.678;2023-05-10T13:32:38;17.9;64.7
78522;SHT31;67819;51.972;5.678;2023-05-10T13:35:07;17.9;66.8
78522;SHT31;67819;51.972;5.678;2023-05-10T13:37:36;17.8;67.3
78522;SHT31;67819;51.972;5.678;2023-05-10T13:40:05;17.7;68.5
78522;SHT31;67819;51.972;5.678;2023-05-10T13:42:34;17.5;69.4
78522;SHT31;67819;51.972;5.678;2023-05-10T13:45:04;17.4;71.0
78522;SHT31;67819;51.972;5.678;2023-05-10T13:47:33;17.3;72.4
78522;SHT31;67819;51.972;5.678;2023-05-10T13:50:01;17.2;72.9
78522;SHT31;67819;51.972;5.678;2023-05-10T13:52:30;17.1;73.3
78522;SHT31;67819;51.972;5.678;2023-05-10T13:54:59;17.0;74.5
78522;SHT31;67819;51.972;5.678;2023-05-10T13:57:28;16.9;75.0
78522;SHT31;67819;51.972;5.678;2023-05-10T13:59:58;16.8;74.8
78522;SHT31;67819;51.972;5.678;2023-05-10T14:02:27;16.6;74.7
78522;SHT31;67819;51.972;5.678;2023-05-10T14:04:56;16.5;75.6
78522;SHT31;67819;51.972;5.678;2023-05-10T14:07:24;16.5;75.4
78522;SHT31;67819;51.972;5.678;2023-05-10T14:09:53;16.4;75.8
78522;SHT31;67819;51.972;5.678;2023-05-10T14:12:22;16.3;75.5
78522;SHT31;67819;51.972;5.678;2023-05-10T14:14:50;16.2;76.4
78522;SHT31;67819;51.972;5.678;2023-05-10T14:17:19;16.2;76.3
78522;SHT31;67819;51.972;5.678;2023-05-10T14:19:48;16.1;77.3
78522;SHT31;67819;51.972;5.678;2023-05-10T14:22:17;16.1;79.1
78522;SHT31;67819;51.972;5.678;2023-05-10T14:24:45;16.0;78.7
78522;SHT31;67819;51.972;5.678;2023-05-10T14:27:14;16.0;77.8
78522;SHT31;67819;51.972;5.678;2023-05-10T14:29:42;16.0;79.3
78522;SHT31;67819;51.972;5.678;2023-05-10T14:32:11;16.0;78.6
78522;SHT31;67819;51.972;5.678;2023-05-10T14:34:39;16.0;78.4
78522;SHT31;67819;51.972;5.678;2023-05-10T14:37:10;16.0;78.8
78522;SHT31;67819;51.972;5.678;2023-05-10T14:39:39;16.0;77.5
78522;SHT31;67819;51.972;5.678;2023-05-10T14:42:08;16.0;79.1
78522;SHT31;67819;51.972;5.678;2023-05-10T14:44:37;16.1;79.1
78522;SHT31;67819;51.972;5.678;2023-05-10T14:47:06;16.1;77.4
78522;SHT31;67819;51.972;5.678;2023-05-10T14:49:36;16.1;78.0
78522;SHT31;67819;51.972;5.678;2023-05-10T14:52:05;16.2;77.2
78522;SHT31;67819;51.972;5.678;2023-05-10T14:54:34;16.2;78.1
78522;SHT31;67819;51.972;5.678;2023-05-10T14:57:02;16.3;77.5
78522;SHT31;67819;51.972;5.678;2023-05-10T14:59:32;16.3;77.5
78522;SHT31;67819;51.972;5.678;2023-05-10T15:02:00;16.4;77.8
78522;SHT31;67819;51.972;5.678;2023-05-10T15:04:29;16.4;75.7
78522;SHT31;67819;51.972;5.678;2023-05-10T15:06:58;16.5;76.5
78522;SHT31;67819;51.972;5.678;2023-05-10T15:09:27;16.5;75.8
78522;SHT31;67819;51.972;5.678;2023-05-10T15:11:55;16.5;75.4
78522;SHT31;67819;51.972;5.678;2023-05-10T15:14:24;16.5;74.2
78522;SHT31;67819;51.972;5.678;2023-05-10T15:16:52;16.5;74.9
78522;SHT31;67819;51.972;5.678;2023-05-10T15:19:21;16.5;75.4
78522;SHT31;67819;51.972;5.678;2023-05-10T15:21:50;16.5;75.4
78522;SHT31;67819;51.972;5.678;2023-05-10T15:24:18;16.5;74.2
78522;SHT31;67819;51.972;5.678;2023-05-10T15:26:47;16.5;76.3
78522;SHT31;67819;51.972;5.678;2023-05-10T15:29:16;16.5;76.8
78522;SHT31;67819;51.972;5.678;2023-05-10T15:31:46;16.5;75.8
78522;SHT31;67819;51.972;5.678;2023-05-10T15:34:16;16.6;76.2
78522;SHT31;67819;51.972;5.678;2023-05-10T15:36:45;16.7;74.5
78522;SHT31;67819;51.972;5.678;2023-05-10T15:39:16;16.7;74.4
78522;SHT31;67819;51.972;5.678;2023-05-10T15:41:44;16.8;74.7
78522;SHT31;67819;51.972;5.678;2023-05-10T15:44:13;16.8;72.9
78522;SHT31;67819;51.972;5.678;2023-05-10T15:46:44;16.9;74.1
78522;SHT31;67819;51.972;5.678;2023-05-10T15:49:13;16.9;74.1
78522;SHT31;67819;51.972;5.678;2023-05-10T15:51:41;17.0;75.3
78522;SHT31;67819;51.972;5.678;2023-05-10T15:54:09;17.1;72.9
78522;SHT31;67819;51.972;5.678;2023-05-10T15:56:38;17.1;70.3
78522;SHT31;67819;51.972;5.678;2023-05-10T15:59:07;17.1;70.1
78522;SHT31;67819;51.972;5.678;2023-05-10T16:01:37;17.1;70.5
78522;SHT31;67819;51.972;5.678;2023-05-10T16:04:05;17.1;69.7
78522;SHT31;67819;51.972;5.678;2023-05-10T16:06:35;17.0;70.8
78522;SHT31;67819;51.972;5.678;2023-05-10T16:09:03;17.0;72.3
78522;SHT31;67819;51.972;5.678;2023-05-10T16:11:32;17.0;73.1
78522;SHT31;67819;51.972;5.678;2023-05-10T16:14:01;17.0;72.9
78522;SHT31;67819;51.972;5.678;2023-05-10T16:16:31;17.0;73.4
78522;SHT31;67819;51.972;5.678;2023-05-10T16:19:00;17.0;72.5
78522;SHT31;67819;51.972;5.678;2023-05-10T16:21:29;17.0;70.8
78522;SHT31;67819;51.972;5.678;2023-05-10T16:23:59;17.0;71.4
78522;SHT31;67819;51.972;5.678;2023-05-10T16:26:28;17.0;73.2